sensor_id;sensor_type;location;lat;lon;timestamp;pressure;altitude;pressure_sealevel;temperature;humidity
29197;BME280;62796;42.654;23.316;2023-04-27T00:00:47;94267.31;;;9.91;40.84
29197;BME280;62796;42.654;23.316;2023-04-27T00:03:13;94282.72;;;10.18;40.66
29197;BME280;62796;42.654;23.316;2023-04-27T00:05:38;94275.22;;;10.24;40.38
29197;BME280;62796;42.654;23.316;2023-04-27T00:08:07;94280.19;;;10.20;40.60
29197;BME280;62796;42.654;23.316;2023-04-27T00:10:33;94270.19;;;10.28;40.15
29197;BME280;62796;42.654;23.316;2023-04-27T00:12:58;94282.31;;;10.30;40.15
29197;BME280;62796;42.654;23.316;2023-04-27T00:15:24;94285.84;;;10.31;39.88
29197;BME280;62796;42.654;23.316;2023-04-27T00:17:49;94285.09;;;10.30;39.97
29197;BME280;62796;42.654;23.316;2023-04-27T00:20:15;94284.72;;;10.17;40.17
29197;BME280;62796;42.654;23.316;2023-04-27T00:22:41;94284.50;;;10.21;40.52
29197;BME280;62796;42.654;23.316;2023-04-27T00:25:07;94283.47;;;10.18;39.63
29197;BME280;62796;42.654;23.316;2023-04-27T00:27:32;94288.75;;;10.22;39.70
29197;BME280;62796;42.654;23.316;2023-04-27T00:29:58;94293.81;;;10.23;39.84
29197;BME280;62796;42.654;23.316;2023-04-27T00:32:23;94273.09;;;10.13;39.57
29197;BME280;62796;42.654;23.316;2023-04-27T00:34:48;94290.50;;;10.19;39.79
29197;BME280;62796;42.654;23.316;2023-04-27T00:37:14;94285.56;;;10.03;40.13
29197;BME280;62796;42.654;23.316;2023-04-27T00:39:39;94274.03;;;10.10;40.06
29197;BME280;62796;42.654;23.316;2023-04-27T00:42:05;94288.47;;;10.14;40.14
29197;BME280;62796;42.654;23.316;2023-04-27T00:44:31;94285.81;;;10.05;40.28
29197;BME280;62796;42.654;23.316;2023-04-27T00:46:57;94287.34;;;10.06;40.27
29197;BME280;62796;42.654;23.316;2023-04-27T00:49:23;94284.63;;;10.12;40.20
29197;BME280;62796;42.654;23.316;2023-04-27T00:51:50;94281.25;;;10.02;40.19
29197;BME280;62796;42.654;23.316;2023-04-27T00:54:18;94294.59;;;10.03;39.80
29197;BME280;62796;42.654;23.316;2023-04-27T00:56:46;94299.03;;;9.95;40.25
29197;BME280;62796;42.654;23.316;2023-04-27T00:59:12;94298.28;;;9.95;40.28
29197;BME280;62796;42.654;23.316;2023-04-27T01:01:37;94287.38;;;9.86;40.21
29197;BME280;62796;42.654;23.316;2023-04-27T01:04:03;94297.19;;;9.87;40.43
29197;BME280;62796;42.654;23.316;2023-04-27T01:06:28;94304.47;;;9.84;40.34
29197;BME280;62796;42.654;23.316;2023-04-27T01:08:54;94309.13;;;9.53;40.90
29197;BME280;62796;42.654;23.316;2023-04-27T01:11:20;94304.44;;;9.59;41.34
29197;BME280;62796;42.654;23.316;2023-04-27T01:13:45;94305.78;;;9.69;41.04
29197;BME280;62796;42.654;23.316;2023-04-27T01:16:11;94315.56;;;9.64;40.87
29197;BME280;62796;42.654;23.316;2023-04-27T01:18:36;94310.63;;;9.33;41.63
29197;BME280;62796;42.654;23.316;2023-04-27T01:21:02;94312.84;;;9.50;41.33
29197;BME280;62796;42.654;23.316;2023-04-27T01:23:27;94309.66;;;9.36;41.19
29197;BME280;62796;42.654;23.316;2023-04-27T01:25:52;94316.09;;;9.48;41.26
29197;BME280;62796;42.654;23.316;2023-04-27T01:28:18;94318.84;;;9.48;41.08
29197;BME280;62796;42.654;23.316;2023-04-27T01:30:43;94313.41;;;9.54;40.95
29197;BME280;62796;42.654;23.316;2023-04-27T01:33:09;94317.00;;;9.60;40.97
29197;BME280;62796;42.654;23.316;2023-04-27T01:35:35;94312.44;;;9.36;41.29
29197;BME280;62796;42.654;23.316;2023-04-27T01:38:00;94316.84;;;9.49;41.18
29197;BME280;62796;42.654;23.316;2023-04-27T01:40:26;94311.94;;;9.38;40.58
29197;BME280;62796;42.654;23.316;2023-04-27T01:42:52;94318.38;;;9.50;40.62
29197;BME280;62796;42.654;23.316;2023-04-27T01:45:17;94318.53;;;9.61;40.87
29197;BME280;62796;42.654;23.316;2023-04-27T01:47:43;94322.38;;;9.69;40.52
29197;BME280;62796;42.654;23.316;2023-04-27T01:50:08;94317.81;;;9.66;40.21
29197;BME280;62796;42.654;23.316;2023-04-27T01:52:34;94316.59;;;9.47;40.59
29197;BME280;62796;42.654;23.316;2023-04-27T01:54:59;94314.34;;;9.51;40.51
29197;BME280;62796;42.654;23.316;2023-04-27T01:57:24;94321.97;;;9.56;40.54
29197;BME280;62796;42.654;23.316;2023-04-27T01:59:50;94322.78;;;9.62;40.29
29197;BME280;62796;42.654;23.316;2023-04-27T02:02:16;94318.66;;;9.72;40.35
29197;BME280;62796;42.654;23.316;2023-04-27T02:04:41;94316.84;;;9.69;40.06
29197;BME280;62796;42.654;23.316;2023-04-27T02:07:07;94306.91;;;9.57;39.75
29197;BME280;62796;42.654;23.316;2023-04-27T02:09:33;94313.97;;;9.58;39.73
29197;BME280;62796;42.654;23.316;2023-04-27T02:11:58;94312.44;;;9.36;40.43
29197;BME280;62796;42.654;23.316;2023-04-27T02:14:23;94321.81;;;9.44;40.17
29197;BME280;62796;42.654;23.316;2023-04-27T02:16:49;94314.56;;;9.47;40.28
29197;BME280;62796;42.654;23.316;2023-04-27T02:19:14;94319.41;;;9.52;40.09
29197;BME280;62796;42.654;23.316;2023-04-27T02:21:40;94321.97;;;9.56;40.25
29197;BME280;62796;42.654;23.316;2023-04-27T02:24:05;94318.91;;;9.54;39.98
29197;BME280;62796;42.654;23.316;2023-04-27T02:26:31;94320.03;;;9.62;39.80
29197;BME280;62796;42.654;23.316;2023-04-27T02:28:57;94327.06;;;9.63;39.80
29197;BME280;62796;42.654;23.316;2023-04-27T02:31:22;94321.09;;;9.64;39.91
29197;BME280;62796;42.654;23.316;2023-04-27T02:33:48;94316.22;;;9.59;39.50
29197;BME280;62796;42.654;23.316;2023-04-27T02:36:13;94327.72;;;9.52;39.80
29197;BME280;62796;42.654;23.316;2023-04-27T02:38:39;94320.47;;;9.55;39.82
29197;BME280;62796;42.654;23.316;2023-04-27T02:41:04;94324.88;;;9.47;39.84
29197;BME280;62796;42.654;23.316;2023-04-27T02:43:29;94320.09;;;9.47;39.93
29197;BME280;62796;42.654;23.316;2023-04-27T02:45:55;94331.44;;;9.49;39.83
29197;BME280;62796;42.654;23.316;2023-04-27T02:48:20;94325.84;;;9.43;39.74
29197;BME280;62796;42.654;23.316;2023-04-27T02:50:46;94327.34;;;9.44;39.81
29197;BME280;62796;42.654;23.316;2023-04-27T02:53:11;94332.41;;;9.46;40.00
29197;BME280;62796;42.654;23.316;2023-04-27T02:55:37;94328.88;;;9.45;39.95
29197;BME280;62796;42.654;23.316;2023-04-27T02:58:03;94330.25;;;9.35;39.71
29197;BME280;62796;42.654;23.316;2023-04-27T03:00:29;94325.28;;;9.19;39.79
29197;BME280;62796;42.654;23.316;2023-04-27T03:02:54;94332.78;;;9.19;40.18
29197;BME280;62796;42.654;23.316;2023-04-27T03:05:20;94329.72;;;9.31;40.00
29197;BME280;62796;42.654;23.316;2023-04-27T03:07:46;94341.44;;;8.92;40.62
29197;BME280;62796;42.654;23.316;2023-04-27T03:10:11;94336.38;;;9.05;40.31
29197;BME280;62796;42.654;23.316;2023-04-27T03:12:36;94349.41;;;9.04;40.33
29197;BME280;62796;42.654;23.316;2023-04-27T03:15:02;94336.69;;;8.92;40.79
29197;BME280;62796;42.654;23.316;2023-04-27T03:17:28;94342.03;;;8.81;41.12
29197;BME280;62796;42.654;23.316;2023-04-27T03:19:53;94350.03;;;8.79;41.30
29197;BME280;62796;42.654;23.316;2023-04-27T03:22:19;94353.34;;;8.83;40.98
29197;BME280;62796;42.654;23.316;2023-04-27T03:24:44;94349.22;;;8.93;40.74
29197;BME280;62796;42.654;23.316;2023-04-27T03:27:10;94357.63;;;8.69;41.02
29197;BME280;62796;42.654;23.316;2023-04-27T03:29:35;94354.59;;;8.82;40.87
29197;BME280;62796;42.654;23.316;2023-04-27T03:32:02;94338.03;;;8.82;40.90
29197;BME280;62796;42.654;23.316;2023-04-27T03:34:28;94363.91;;;8.84;41.18
29197;BME280;62796;42.654;23.316;2023-04-27T03:36:54;94367.50;;;9.05;40.73
29197;BME280;62796;42.654;23.316;2023-04-27T03:39:20;94366.16;;;9.15;40.25
29197;BME280;62796;42.654;23.316;2023-04-27T03:41:45;94365.25;;;9.24;40.28
29197;BME280;62796;42.654;23.316;2023-04-27T03:44:11;94366.31;;;9.26;40.02
29197;BME280;62796;42.654;23.316;2023-04-27T03:46:36;94376.09;;;9.07;39.87
29197;BME280;62796;42.654;23.316;2023-04-27T03:49:01;94364.06;;;9.10;40.11
29197;BME280;62796;42.654;23.316;2023-04-27T03:51:28;94365.03;;;9.07;39.96
29197;BME280;62796;42.654;23.316;2023-04-27T03:53:54;94370.25;;;9.20;39.90
29197;BME280;62796;42.654;23.316;2023-04-27T03:56:19;94371.53;;;8.89;40.36
29197;BME280;62796;42.654;23.316;2023-04-27T03:58:45;94379.22;;;9.00;39.85
29197;BME280;62796;42.654;23.316;2023-04-27T04:01:10;94387.13;;;9.07;39.98
29197;BME280;62796;42.654;23.316;2023-04-27T04:03:36;94384.44;;;9.13;39.78
29197;BME280;62796;42.654;23.316;2023-04-27T04:06:01;94389.09;;;9.21;39.55
29197;BME280;62796;42.654;23.316;2023-04-27T04:08:28;94391.72;;;8.96;39.87
29197;BME280;62796;42.654;23.316;2023-04-27T04:10:55;94398.84;;;9.02;39.69
29197;BME280;62796;42.654;23.316;2023-04-27T04:13:21;94391.69;;;9.10;39.66
29197;BME280;62796;42.654;23.316;2023-04-27T04:15:46;94398.00;;;9.11;39.17
29197;BME280;62796;42.654;23.316;2023-04-27T04:18:12;94404.81;;;9.15;39.23
29197;BME280;62796;42.654;23.316;2023-04-27T04:20:37;94403.47;;;9.25;39.36
29197;BME280;62796;42.654;23.316;2023-04-27T04:23:02;94412.03;;;9.27;38.82
29197;BME280;62796;42.654;23.316;2023-04-27T04:25:28;94407.47;;;9.24;38.54
29197;BME280;62796;42.654;23.316;2023-04-27T04:27:53;94412.72;;;9.22;38.65
29197;BME280;62796;42.654;23.316;2023-04-27T04:30:19;94409.97;;;9.22;39.04
29197;BME280;62796;42.654;23.316;2023-04-27T04:32:44;94421.56;;;9.26;39.07
29197;BME280;62796;42.654;23.316;2023-04-27T04:35:10;94413.44;;;8.88;39.59
29197;BME280;62796;42.654;23.316;2023-04-27T04:37:36;94430.19;;;8.99;39.44
29197;BME280;62796;42.654;23.316;2023-04-27T04:40:05;94430.38;;;9.10;39.20
29197;BME280;62796;42.654;23.316;2023-04-27T04:42:37;94427.88;;;9.12;38.82
29197;BME280;62796;42.654;23.316;2023-04-27T04:45:02;94435.50;;;9.17;39.28
29197;BME280;62796;42.654;23.316;2023-04-27T04:47:28;94437.00;;;9.33;38.36
29197;BME280;62796;42.654;23.316;2023-04-27T04:49:56;94429.34;;;9.42;38.50
29197;BME280;62796;42.654;23.316;2023-04-27T04:52:21;94436.56;;;9.55;38.60
29197;BME280;62796;42.654;23.316;2023-04-27T04:54:50;94443.25;;;9.48;38.62
29197;BME280;62796;42.654;23.316;2023-04-27T04:57:15;94447.81;;;9.51;38.62
29197;BME280;62796;42.654;23.316;2023-04-27T04:59:41;94446.59;;;9.52;38.61
29197;BME280;62796;42.654;23.316;2023-04-27T05:02:06;94445.91;;;9.57;38.73
29197;BME280;62796;42.654;23.316;2023-04-27T05:04:31;94446.78;;;9.83;37.75
29197;BME280;62796;42.654;23.316;2023-04-27T05:06:57;94450.44;;;9.95;37.37
29197;BME280;62796;42.654;23.316;2023-04-27T05:09:24;94447.47;;;9.78;37.61
29197;BME280;62796;42.654;23.316;2023-04-27T05:11:49;94447.63;;;9.55;38.42
29197;BME280;62796;42.654;23.316;2023-04-27T05:14:15;94457.69;;;9.72;38.25
29197;BME280;62796;42.654;23.316;2023-04-27T05:16:40;94468.22;;;9.54;37.85
29197;BME280;62796;42.654;23.316;2023-04-27T05:19:06;94464.56;;;9.62;38.25
29197;BME280;62796;42.654;23.316;2023-04-27T05:21:32;94466.44;;;9.71;38.19
29197;BME280;62796;42.654;23.316;2023-04-27T05:23:58;94471.47;;;9.87;38.21
29197;BME280;62796;42.654;23.316;2023-04-27T05:26:23;94463.28;;;9.78;37.91
29197;BME280;62796;42.654;23.316;2023-04-27T05:28:48;94475.69;;;9.82;37.97
29197;BME280;62796;42.654;23.316;2023-04-27T05:31:14;94469.25;;;9.91;37.73
29197;BME280;62796;42.654;23.316;2023-04-27T05:33:39;94473.13;;;9.99;38.10
29197;BME280;62796;42.654;23.316;2023-04-27T05:36:05;94476.75;;;10.05;37.93
29197;BME280;62796;42.654;23.316;2023-04-27T05:38:31;94467.41;;;10.02;37.57
29197;BME280;62796;42.654;23.316;2023-04-27T05:40:57;94474.38;;;9.98;37.72
29197;BME280;62796;42.654;23.316;2023-04-27T05:43:24;94481.09;;;9.91;37.87
29197;BME280;62796;42.654;23.316;2023-04-27T05:45:50;94480.94;;;10.00;38.30
29197;BME280;62796;42.654;23.316;2023-04-27T05:48:16;94482.66;;;9.78;38.27
29197;BME280;62796;42.654;23.316;2023-04-27T05:50:42;94487.94;;;9.96;38.39
29197;BME280;62796;42.654;23.316;2023-04-27T05:53:07;94482.28;;;10.05;38.28
29197;BME280;62796;42.654;23.316;2023-04-27T05:55:33;94477.44;;;10.00;38.02
29197;BME280;62796;42.654;23.316;2023-04-27T05:57:58;94486.00;;;10.02;37.90
29197;BME280;62796;42.654;23.316;2023-04-27T06:00:24;94484.47;;;10.01;38.24
29197;BME280;62796;42.654;23.316;2023-04-27T06:02:49;94468.31;;;9.94;38.53
29197;BME280;62796;42.654;23.316;2023-04-27T06:05:15;94491.13;;;10.09;38.20
29197;BME280;62796;42.654;23.316;2023-04-27T06:07:41;94481.78;;;10.07;38.59
29197;BME280;62796;42.654;23.316;2023-04-27T06:10:08;94490.19;;;9.97;38.67
29197;BME280;62796;42.654;23.316;2023-04-27T06:12:34;94487.94;;;9.96;38.86
29197;BME280;62796;42.654;23.316;2023-04-27T06:14:59;94489.25;;;10.00;39.00
29197;BME280;62796;42.654;23.316;2023-04-27T06:17:27;94485.72;;;9.65;40.06
29197;BME280;62796;42.654;23.316;2023-04-27T06:19:52;94469.41;;;9.18;40.32
29197;BME280;62796;42.654;23.316;2023-04-27T06:22:18;94488.91;;;9.58;40.57
29197;BME280;62796;42.654;23.316;2023-04-27T06:24:43;94485.03;;;9.85;39.94
29197;BME280;62796;42.654;23.316;2023-04-27T06:27:08;94476.19;;;10.01;39.22
29197;BME280;62796;42.654;23.316;2023-04-27T06:29:34;94479.25;;;10.03;38.64
29197;BME280;62796;42.654;23.316;2023-04-27T06:31:59;94478.66;;;9.99;38.97
29197;BME280;62796;42.654;23.316;2023-04-27T06:34:25;94473.28;;;10.10;38.63
29197;BME280;62796;42.654;23.316;2023-04-27T06:36:51;94480.34;;;10.11;38.51
29197;BME280;62796;42.654;23.316;2023-04-27T06:39:16;94472.19;;;10.22;38.35
29197;BME280;62796;42.654;23.316;2023-04-27T06:41:41;94475.72;;;10.23;38.05
29197;BME280;62796;42.654;23.316;2023-04-27T06:44:07;94478.88;;;10.30;38.38
29197;BME280;62796;42.654;23.316;2023-04-27T06:46:32;94479.03;;;10.47;38.07
29197;BME280;62796;42.654;23.316;2023-04-27T06:48:58;94472.03;;;10.51;37.76
29197;BME280;62796;42.654;23.316;2023-04-27T06:51:23;94476.75;;;10.66;37.47
29197;BME280;62796;42.654;23.316;2023-04-27T06:53:49;94474.31;;;10.13;38.44
29197;BME280;62796;42.654;23.316;2023-04-27T06:56:14;94472.13;;;10.17;38.48
29197;BME280;62796;42.654;23.316;2023-04-27T06:58:39;94480.78;;;10.44;38.26
29197;BME280;62796;42.654;23.316;2023-04-27T07:01:05;94481.16;;;10.57;37.68
29197;BME280;62796;42.654;23.316;2023-04-27T07:03:34;94479.88;;;10.79;37.54
29197;BME280;62796;42.654;23.316;2023-04-27T07:06:00;94478.69;;;10.85;37.71
29197;BME280;62796;42.654;23.316;2023-04-27T07:08:25;94477.78;;;10.94;36.98
29197;BME280;62796;42.654;23.316;2023-04-27T07:10:51;94479.25;;;11.15;36.83
29197;BME280;62796;42.654;23.316;2023-04-27T07:13:16;94475.13;;;11.36;35.77
29197;BME280;62796;42.654;23.316;2023-04-27T07:15:41;94474.69;;;11.43;35.51
29197;BME280;62796;42.654;23.316;2023-04-27T07:18:07;94466.44;;;11.54;35.80
29197;BME280;62796;42.654;23.316;2023-04-27T07:20:32;94457.88;;;11.52;35.04
29197;BME280;62796;42.654;23.316;2023-04-27T07:22:58;94476.63;;;11.68;35.01
29197;BME280;62796;42.654;23.316;2023-04-27T07:25:23;94476.75;;;11.80;34.99
29197;BME280;62796;42.654;23.316;2023-04-27T07:27:48;94466.72;;;11.88;34.43
29197;BME280;62796;42.654;23.316;2023-04-27T07:30:14;94458.19;;;11.97;34.58
29197;BME280;62796;42.654;23.316;2023-04-27T07:32:41;94457.28;;;12.22;34.04
29197;BME280;62796;42.654;23.316;2023-04-27T07:35:07;94459.34;;;12.27;33.54
29197;BME280;62796;42.654;23.316;2023-04-27T07:37:37;94466.97;;;12.43;33.75
29197;BME280;62796;42.654;23.316;2023-04-27T07:40:03;94463.00;;;12.61;33.67
29197;BME280;62796;42.654;23.316;2023-04-27T07:42:40;94453.88;;;12.55;33.65
29197;BME280;62796;42.654;23.316;2023-04-27T07:45:07;94453.63;;;12.47;33.42
29197;BME280;62796;42.654;23.316;2023-04-27T07:47:33;94462.47;;;12.51;33.09
29197;BME280;62796;42.654;23.316;2023-04-27T07:49:58;94455.41;;;12.61;32.57
29197;BME280;62796;42.654;23.316;2023-04-27T07:52:24;94456.97;;;12.73;32.93
29197;BME280;62796;42.654;23.316;2023-04-27T07:54:49;94454.50;;;12.87;32.81
29197;BME280;62796;42.654;23.316;2023-04-27T07:57:15;94450.19;;;12.97;32.46
29197;BME280;62796;42.654;23.316;2023-04-27T07:59:40;94457.34;;;13.25;32.30
29197;BME280;62796;42.654;23.316;2023-04-27T08:02:06;94462.16;;;13.58;31.83
29197;BME280;62796;42.654;23.316;2023-04-27T08:04:31;94457.56;;;13.89;31.24
29197;BME280;62796;42.654;23.316;2023-04-27T08:06:57;94454.50;;;12.98;32.49
29197;BME280;62796;42.654;23.316;2023-04-27T08:09:22;94460.13;;;13.42;31.75
29197;BME280;62796;42.654;23.316;2023-04-27T08:11:48;94456.81;;;13.71;30.77
29197;BME280;62796;42.654;23.316;2023-04-27T08:14:13;94468.69;;;13.83;30.44
29197;BME280;62796;42.654;23.316;2023-04-27T08:16:42;94469.25;;;13.65;30.58
29197;BME280;62796;42.654;23.316;2023-04-27T08:19:09;94467.47;;;13.67;30.14
29197;BME280;62796;42.654;23.316;2023-04-27T08:21:36;94457.56;;;13.77;29.80
29197;BME280;62796;42.654;23.316;2023-04-27T08:24:02;94451.00;;;13.92;30.23
29197;BME280;62796;42.654;23.316;2023-04-27T08:26:27;94454.78;;;13.94;30.22
29197;BME280;62796;42.654;23.316;2023-04-27T08:28:53;94448.25;;;13.64;30.62
29197;BME280;62796;42.654;23.316;2023-04-27T08:31:20;94462.66;;;13.62;30.53
29197;BME280;62796;42.654;23.316;2023-04-27T08:33:46;94461.13;;;13.50;30.93
29197;BME280;62796;42.654;23.316;2023-04-27T08:36:11;94459.13;;;13.67;31.15
29197;BME280;62796;42.654;23.316;2023-04-27T08:38:37;94455.03;;;13.74;30.63
29197;BME280;62796;42.654;23.316;2023-04-27T08:41:02;94465.66;;;13.98;30.37
29197;BME280;62796;42.654;23.316;2023-04-27T08:43:37;94458.59;;;13.74;31.22
29197;BME280;62796;42.654;23.316;2023-04-27T08:46:02;94461.66;;;13.76;31.00
29197;BME280;62796;42.654;23.316;2023-04-27T08:48:28;94463.63;;;13.93;30.31
29197;BME280;62796;42.654;23.316;2023-04-27T08:50:55;94463.34;;;14.02;30.48
29197;BME280;62796;42.654;23.316;2023-04-27T08:53:22;94462.56;;;14.18;29.73
29197;BME280;62796;42.654;23.316;2023-04-27T08:55:49;94466.56;;;14.45;29.89
29197;BME280;62796;42.654;23.316;2023-04-27T08:58:14;94462.66;;;14.64;29.20
29197;BME280;62796;42.654;23.316;2023-04-27T09:00:42;94463.81;;;14.39;29.01
29197;BME280;62796;42.654;23.316;2023-04-27T09:03:26;94459.97;;;14.31;29.33
29197;BME280;62796;42.654;23.316;2023-04-27T09:05:51;94450.56;;;14.56;29.43
29197;BME280;62796;42.654;23.316;2023-04-27T09:08:17;94460.97;;;14.50;29.35
29197;BME280;62796;42.654;23.316;2023-04-27T09:10:46;94457.44;;;14.44;29.12
29197;BME280;62796;42.654;23.316;2023-04-27T09:13:13;94451.44;;;14.07;29.30
29197;BME280;62796;42.654;23.316;2023-04-27T09:15:44;94459.50;;;14.27;29.44
29197;BME280;62796;42.654;23.316;2023-04-27T09:18:18;94456.56;;;14.71;28.60
29197;BME280;62796;42.654;23.316;2023-04-27T09:20:48;94456.00;;;15.25;28.27
29197;BME280;62796;42.654;23.316;2023-04-27T09:23:35;94452.84;;;15.39;27.89
29197;BME280;62796;42.654;23.316;2023-04-27T09:26:02;94452.06;;;15.04;27.70
29197;BME280;62796;42.654;23.316;2023-04-27T09:28:30;94448.13;;;15.23;27.40
29197;BME280;62796;42.654;23.316;2023-04-27T09:31:01;94450.13;;;14.87;28.04
29197;BME280;62796;42.654;23.316;2023-04-27T09:33:28;94432.72;;;15.17;27.95
29197;BME280;62796;42.654;23.316;2023-04-27T09:35:56;94428.81;;;14.95;27.41
29197;BME280;62796;42.654;23.316;2023-04-27T09:38:22;94429.69;;;14.74;27.08
29197;BME280;62796;42.654;23.316;2023-04-27T09:40:49;94427.81;;;14.87;27.52
29197;BME280;62796;42.654;23.316;2023-04-27T09:43:15;94429.53;;;15.02;26.52
29197;BME280;62796;42.654;23.316;2023-04-27T09:45:41;94428.63;;;15.18;26.78
29197;BME280;62796;42.654;23.316;2023-04-27T09:48:08;94426.72;;;15.02;27.12
29197;BME280;62796;42.654;23.316;2023-04-27T09:50:35;94422.03;;;15.21;27.26
29197;BME280;62796;42.654;23.316;2023-04-27T09:53:03;94423.06;;;15.18;26.54
29197;BME280;62796;42.654;23.316;2023-04-27T09:55:33;94416.19;;;14.83;28.09
29197;BME280;62796;42.654;23.316;2023-04-27T10:03:31;94413.88;;;15.88;25.88
29197;BME280;62796;42.654;23.316;2023-04-27T10:08:41;94408.03;;;16.10;24.92
29197;BME280;62796;42.654;23.316;2023-04-27T10:11:14;94420.09;;;16.24;25.47
29197;BME280;62796;42.654;23.316;2023-04-27T10:13:50;94414.22;;;16.46;25.18
29197;BME280;62796;42.654;23.316;2023-04-27T10:16:17;94392.97;;;16.19;25.16
29197;BME280;62796;42.654;23.316;2023-04-27T10:18:50;94408.03;;;16.53;24.87
29197;BME280;62796;42.654;23.316;2023-04-27T10:21:17;94420.47;;;16.57;25.10
29197;BME280;62796;42.654;23.316;2023-04-27T10:23:49;94418.06;;;16.43;24.10
29197;BME280;62796;42.654;23.316;2023-04-27T10:26:23;94414.84;;;15.90;24.95
29197;BME280;62796;42.654;23.316;2023-04-27T10:29:15;94420.13;;;15.05;25.69
29197;BME280;62796;42.654;23.316;2023-04-27T10:31:43;94410.19;;;14.68;27.53
29197;BME280;62796;42.654;23.316;2023-04-27T10:34:10;94416.34;;;15.02;27.00
29197;BME280;62796;42.654;23.316;2023-04-27T10:36:37;94408.88;;;15.16;26.39
29197;BME280;62796;42.654;23.316;2023-04-27T10:39:20;94416.03;;;15.06;26.11
29197;BME280;62796;42.654;23.316;2023-04-27T10:41:54;94399.22;;;14.35;27.49
29197;BME280;62796;42.654;23.316;2023-04-27T10:44:26;94403.53;;;14.25;27.65
29197;BME280;62796;42.654;23.316;2023-04-27T10:46:53;94408.78;;;14.91;26.92
29197;BME280;62796;42.654;23.316;2023-04-27T10:49:20;94409.81;;;15.24;26.70
29197;BME280;62796;42.654;23.316;2023-04-27T10:51:48;94410.13;;;15.56;25.69
29197;BME280;62796;42.654;23.316;2023-04-27T10:54:14;94398.03;;;15.72;25.25
29197;BME280;62796;42.654;23.316;2023-04-27T10:56:39;94400.75;;;15.77;25.38
29197;BME280;62796;42.654;23.316;2023-04-27T10:59:05;94404.88;;;15.95;25.45
29197;BME280;62796;42.654;23.316;2023-04-27T11:01:32;94398.75;;;16.45;24.71
29197;BME280;62796;42.654;23.316;2023-04-27T11:03:58;94399.06;;;16.17;24.77
29197;BME280;62796;42.654;23.316;2023-04-27T11:06:24;94401.16;;;16.11;24.62
29197;BME280;62796;42.654;23.316;2023-04-27T11:08:50;94392.38;;;16.01;24.49
29197;BME280;62796;42.654;23.316;2023-04-27T11:11:16;94390.75;;;16.12;24.17
29197;BME280;62796;42.654;23.316;2023-04-27T11:13:43;94392.72;;;16.17;24.46
29197;BME280;62796;42.654;23.316;2023-04-27T11:16:09;94393.03;;;16.56;24.32
29197;BME280;62796;42.654;23.316;2023-04-27T11:18:36;94400.16;;;16.33;25.17
29197;BME280;62796;42.654;23.316;2023-04-27T11:23:34;94394.63;;;16.89;23.62
29197;BME280;62796;42.654;23.316;2023-04-27T11:26:16;94402.66;;;17.30;23.13
29197;BME280;62796;42.654;23.316;2023-04-27T11:28:44;94397.06;;;17.30;23.18
29197;BME280;62796;42.654;23.316;2023-04-27T11:31:10;94400.75;;;16.26;25.04
29197;BME280;62796;42.654;23.316;2023-04-27T11:33:35;94396.00;;;16.21;24.98
29197;BME280;62796;42.654;23.316;2023-04-27T11:36:14;94397.88;;;16.31;24.49
29197;BME280;62796;42.654;23.316;2023-04-27T11:38:40;94417.50;;;16.26;24.62
29197;BME280;62796;42.654;23.316;2023-04-27T11:41:06;94408.22;;;15.93;25.24
29197;BME280;62796;42.654;23.316;2023-04-27T11:43:32;94410.78;;;16.16;25.36
29197;BME280;62796;42.654;23.316;2023-04-27T11:46:02;94408.63;;;16.27;25.01
29197;BME280;62796;42.654;23.316;2023-04-27T11:48:28;94418.44;;;16.34;24.45
29197;BME280;62796;42.654;23.316;2023-04-27T11:50:56;94407.28;;;16.52;24.40
29197;BME280;62796;42.654;23.316;2023-04-27T11:53:36;94409.66;;;16.67;23.80
29197;BME280;62796;42.654;23.316;2023-04-27T11:56:04;94413.63;;;16.53;24.10
29197;BME280;62796;42.654;23.316;2023-04-27T11:58:34;94418.75;;;16.49;24.44
29197;BME280;62796;42.654;23.316;2023-04-27T12:01:00;94420.09;;;16.85;24.43
29197;BME280;62796;42.654;23.316;2023-04-27T12:03:27;94413.13;;;17.10;23.14
29197;BME280;62796;42.654;23.316;2023-04-27T12:05:52;94405.28;;;16.90;23.03
29197;BME280;62796;42.654;23.316;2023-04-27T12:08:18;94417.53;;;16.87;23.30
29197;BME280;62796;42.654;23.316;2023-04-27T12:10:45;94413.06;;;16.79;23.51
29197;BME280;62796;42.654;23.316;2023-04-27T12:13:11;94415.63;;;16.77;23.90
29197;BME280;62796;42.654;23.316;2023-04-27T12:15:38;94415.03;;;16.65;24.30
29197;BME280;62796;42.654;23.316;2023-04-27T12:18:04;94428.94;;;16.71;24.31
29197;BME280;62796;42.654;23.316;2023-04-27T12:20:30;94423.03;;;16.55;23.56
29197;BME280;62796;42.654;23.316;2023-04-27T12:22:58;94407.56;;;16.49;23.75
29197;BME280;62796;42.654;23.316;2023-04-27T12:25:24;94423.34;;;16.71;23.91
29197;BME280;62796;42.654;23.316;2023-04-27T12:27:49;94427.16;;;16.25;24.66
29197;BME280;62796;42.654;23.316;2023-04-27T12:30:15;94427.84;;;16.55;24.33
29197;BME280;62796;42.654;23.316;2023-04-27T12:32:41;94424.97;;;16.42;24.30
29197;BME280;62796;42.654;23.316;2023-04-27T12:35:07;94422.59;;;16.46;24.48
29197;BME280;62796;42.654;23.316;2023-04-27T12:37:34;94425.97;;;16.20;24.78
29197;BME280;62796;42.654;23.316;2023-04-27T12:39:59;94418.91;;;16.38;25.06
29197;BME280;62796;42.654;23.316;2023-04-27T12:42:25;94419.81;;;16.46;24.63
29197;BME280;62796;42.654;23.316;2023-04-27T12:44:51;94428.56;;;16.37;25.09
29197;BME280;62796;42.654;23.316;2023-04-27T12:47:19;94429.41;;;16.08;25.01
29197;BME280;62796;42.654;23.316;2023-04-27T12:49:45;94434.97;;;16.08;25.37
29197;BME280;62796;42.654;23.316;2023-04-27T12:52:11;94439.44;;;15.92;25.17
29197;BME280;62796;42.654;23.316;2023-04-27T12:54:37;94443.34;;;15.83;25.53
29197;BME280;62796;42.654;23.316;2023-04-27T12:57:03;94434.41;;;15.90;25.30
29197;BME280;62796;42.654;23.316;2023-04-27T12:59:34;94438.09;;;15.74;25.44
29197;BME280;62796;42.654;23.316;2023-04-27T13:02:01;94437.31;;;15.79;24.93